Time;durP1;ratioP1;P1;durP2;ratioP2;P2;SDS_P1;SDS_P2;PMS_P1;PMS_P2;Temp;Humidity;BMP_temperature;BMP_pressure;BME280_temperature;BME280_humidity;BME280_pressure;Samples;Min_cycle;Max_cycle;Signal;HPM_P1;HPM_P2
2021/09/10 00:01:03;;;;;;;16.13;11.43;;;18.50;99.90;;;;;;4966379;28;20031;-60
2021/09/10 00:03:28;;;;;;;18.83;11.00;;;18.50;99.90;;;;;;4968086;28;20027;-59
2021/09/10 00:05:54;;;;;;;17.90;10.32;;;18.50;99.90;;;;;;4967303;28;20037;-59
2021/09/10 00:08:19;;;;;;;19.90;10.95;;;18.50;99.90;;;;;;4965200;28;20058;-60
2021/09/10 00:10:45;;;;;;;13.95;10.40;;;18.50;99.90;;;;;;4959208;28;20066;-55
2021/09/10 00:13:10;;;;;;;16.77;10.63;;;18.50;99.90;;;;;;4969912;28;20085;-59
2021/09/10 00:15:36;;;;;;;15.50;11.10;;;18.50;99.90;;;;;;4964293;28;20394;-57
2021/09/10 00:18:02;;;;;;;27.40;12.05;;;18.50;99.90;;;;;;4965549;28;20565;-61
2021/09/10 00:20:27;;;;;;;14.38;10.32;;;18.50;99.90;;;;;;4962456;28;20027;-60
2021/09/10 00:22:53;;;;;;;17.95;11.68;;;18.50;99.90;;;;;;4964547;28;20455;-59
2021/09/10 00:25:18;;;;;;;13.25;10.82;;;18.50;99.90;;;;;;4961450;28;20130;-58
2021/09/10 00:27:44;;;;;;;15.88;10.43;;;18.50;99.90;;;;;;4966542;28;20031;-59
2021/09/10 00:30:10;;;;;;;16.20;10.45;;;18.50;99.90;;;;;;4967769;28;20066;-58
2021/09/10 00:32:36;;;;;;;20.83;11.65;;;18.50;99.90;;;;;;4965704;28;20023;-55
2021/09/10 00:35:03;;;;;;;18.58;10.85;;;18.50;99.90;;;;;;4961301;28;20031;-59
2021/09/10 00:37:29;;;;;;;20.35;11.07;;;18.50;99.90;;;;;;4970935;28;20029;-59
2021/09/10 00:39:55;;;;;;;17.40;11.05;;;18.50;99.90;;;;;;4967870;28;20474;-58
2021/09/10 00:42:20;;;;;;;17.33;11.23;;;18.50;99.90;;;;;;5020463;23;20112;-58
2021/09/10 00:44:46;;;;;;;16.75;11.63;;;18.40;99.90;;;;;;4992268;28;20037;-60
2021/09/10 00:47:12;;;;;;;18.77;11.70;;;18.40;99.90;;;;;;4988614;28;20029;-60
2021/09/10 00:49:39;;;;;;;21.70;12.02;;;18.40;99.90;;;;;;4991206;28;20042;-59
2021/09/10 00:52:04;;;;;;;19.58;11.02;;;18.40;99.90;;;;;;4988094;28;20154;-58
2021/09/10 00:54:30;;;;;;;15.18;11.13;;;18.40;99.90;;;;;;4983345;28;20019;-56
2021/09/10 00:56:58;;;;;;;27.17;11.95;;;18.40;99.90;;;;;;4991563;28;20034;-54
2021/09/10 00:59:24;;;;;;;13.65;10.15;;;18.40;99.90;;;;;;4991864;28;20030;-58
2021/09/10 01:01:50;;;;;;;22.30;11.48;;;18.40;99.90;;;;;;4992393;28;20034;-56
2021/09/10 01:04:22;;;;;;;21.85;11.10;;;18.40;99.90;;;;;;4992017;28;20030;-57
2021/09/10 01:06:50;;;;;;;18.98;11.95;;;18.40;99.90;;;;;;4989380;28;20124;-55
2021/09/10 01:09:17;;;;;;;19.00;12.52;;;18.40;99.90;;;;;;4992803;28;20185;-56
2021/09/10 01:11:44;;;;;;;18.83;11.75;;;18.40;99.90;;;;;;4993250;28;20045;-58
2021/09/10 01:14:10;;;;;;;21.70;11.45;;;18.40;99.90;;;;;;4993171;28;20106;-56
2021/09/10 01:16:36;;;;;;;16.85;11.93;;;18.40;99.90;;;;;;4992403;28;20019;-59
2021/09/10 01:19:01;;;;;;;16.50;10.75;;;18.40;99.90;;;;;;4989280;28;20388;-56
2021/09/10 01:21:27;;;;;;;17.80;11.05;;;18.40;99.90;;;;;;4992349;28;20390;-57
2021/09/10 01:23:52;;;;;;;20.33;12.25;;;18.40;99.90;;;;;;4990788;28;20088;-58
2021/09/10 01:26:18;;;;;;;17.98;11.70;;;18.40;99.90;;;;;;4989227;28;20046;-58
2021/09/10 01:28:44;;;;;;;19.48;11.00;;;18.40;99.90;;;;;;4991953;28;20027;-59
2021/09/10 01:31:09;;;;;;;21.17;11.85;;;18.50;99.90;;;;;;4986421;28;20061;-59
2021/09/10 01:33:35;;;;;;;19.25;11.90;;;18.40;99.90;;;;;;4989208;28;20062;-58
2021/09/10 01:36:00;;;;;;;15.70;11.13;;;18.50;99.90;;;;;;4991990;28;20397;-58
2021/09/10 01:38:27;;;;;;;14.60;11.05;;;18.50;99.90;;;;;;4990519;28;20038;-58
2021/09/10 01:40:53;;;;;;;17.42;11.63;;;18.50;99.90;;;;;;4991821;28;20109;-59
2021/09/10 01:43:18;;;;;;;13.38;10.85;;;18.50;99.90;;;;;;4991321;28;20062;-57
2021/09/10 01:45:44;;;;;;;14.63;10.48;;;18.50;99.90;;;;;;4991877;28;20567;-58
2021/09/10 01:48:09;;;;;;;22.02;11.43;;;18.60;99.90;;;;;;4991913;28;20034;-56
2021/09/10 01:50:35;;;;;;;20.65;10.50;;;18.60;99.90;;;;;;4989313;28;20026;-59
2021/09/10 01:53:01;;;;;;;13.98;11.05;;;18.60;99.90;;;;;;4990107;28;20018;-58
2021/09/10 01:55:28;;;;;;;18.48;9.88;;;18.60;99.90;;;;;;4989387;28;20101;-59
2021/09/10 01:57:53;;;;;;;17.48;10.48;;;18.60;99.90;;;;;;4989519;28;20022;-57
2021/09/10 02:00:19;;;;;;;14.40;9.57;;;18.60;99.90;;;;;;4991601;28;20030;-58
2021/09/10 02:02:46;;;;;;;14.55;10.65;;;18.60;99.90;;;;;;4992099;28;20091;-55
2021/09/10 02:05:12;;;;;;;18.70;11.23;;;18.60;99.90;;;;;;4988058;28;20093;-58
2021/09/10 02:07:38;;;;;;;18.30;11.07;;;18.60;99.90;;;;;;4988600;28;20788;-55
2021/09/10 02:10:06;;;;;;;19.70;10.98;;;18.60;99.90;;;;;;4986775;28;20026;-57
2021/09/10 02:12:32;;;;;;;14.88;9.95;;;18.60;99.90;;;;;;4991809;28;20512;-55
2021/09/10 02:14:57;;;;;;;14.70;10.55;;;18.60;99.90;;;;;;4989351;28;20030;-59
2021/09/10 02:17:23;;;;;;;12.75;10.00;;;18.50;99.90;;;;;;4987846;28;20030;-58
2021/09/10 02:19:48;;;;;;;15.68;10.77;;;18.50;99.90;;;;;;4989469;28;20030;-57
2021/09/10 02:22:14;;;;;;;16.77;10.35;;;18.50;99.90;;;;;;4991246;28;20062;-59
2021/09/10 02:24:39;;;;;;;18.70;10.68;;;18.50;99.90;;;;;;4990998;28;20034;-56
2021/09/10 02:27:05;;;;;;;17.98;10.55;;;18.40;99.90;;;;;;4990554;28;20025;-56
2021/09/10 02:29:31;;;;;;;13.68;10.70;;;18.40;99.90;;;;;;4989746;28;20038;-56
2021/09/10 02:31:56;;;;;;;20.40;11.88;;;18.40;99.90;;;;;;4989581;28;20464;-60
2021/09/10 02:34:22;;;;;;;17.73;10.88;;;18.30;99.90;;;;;;4991182;28;20092;-59
2021/09/10 02:36:48;;;;;;;14.32;10.77;;;18.30;99.90;;;;;;4990713;28;20030;-58
2021/09/10 02:39:13;;;;;;;17.08;11.45;;;18.20;99.90;;;;;;4988893;28;20081;-59
2021/09/10 02:41:39;;;;;;;21.70;12.60;;;18.30;99.90;;;;;;4991353;28;20069;-55
2021/09/10 02:44:07;;;;;;;16.45;12.10;;;18.30;99.90;;;;;;4991218;28;20030;-59
2021/09/10 02:46:33;;;;;;;16.60;11.73;;;18.30;99.90;;;;;;4990323;28;20502;-59
2021/09/10 02:48:59;;;;;;;17.73;11.65;;;18.30;99.90;;;;;;4990970;28;20062;-58
2021/09/10 02:51:25;;;;;;;17.17;11.50;;;18.30;99.90;;;;;;4988997;28;20471;-58
2021/09/10 02:53:50;;;;;;;18.90;10.65;;;18.30;99.90;;;;;;4990383;28;20040;-57
2021/09/10 02:56:16;;;;;;;28.25;11.38;;;18.30;99.90;;;;;;4989778;28;20029;-58
2021/09/10 02:58:42;;;;;;;16.60;11.07;;;18.40;99.90;;;;;;4989301;28;20097;-58
2021/09/10 03:01:07;;;;;;;20.73;11.30;;;18.30;99.90;;;;;;4985452;28;20023;-58
2021/09/10 03:03:33;;;;;;;17.98;10.55;;;18.40;99.90;;;;;;4990266;28;20042;-54
2021/09/10 03:05:58;;;;;;;19.73;11.70;;;18.30;99.90;;;;;;4986829;28;20061;-59
2021/09/10 03:08:24;;;;;;;15.68;10.75;;;18.30;99.90;;;;;;4985101;28;20022;-58
2021/09/10 03:10:50;;;;;;;12.02;10.52;;;18.20;99.90;;;;;;4990097;28;20065;-58
2021/09/10 03:13:16;;;;;;;19.30;10.52;;;18.20;99.90;;;;;;4990402;28;20039;-57
2021/09/10 03:15:42;;;;;;;18.67;10.68;;;18.10;99.90;;;;;;4990222;28;20037;-57
2021/09/10 03:18:08;;;;;;;19.10;12.13;;;18.10;99.90;;;;;;4990619;28;20026;-56
2021/09/10 03:20:33;;;;;;;14.75;10.70;;;18.00;99.90;;;;;;4988489;28;20406;-58
2021/09/10 03:22:59;;;;;;;19.42;10.93;;;18.00;99.90;;;;;;4990756;28;20493;-56
2021/09/10 03:25:25;;;;;;;17.08;12.30;;;18.00;99.90;;;;;;4985085;28;20045;-59
2021/09/10 03:27:50;;;;;;;15.93;10.30;;;17.90;99.90;;;;;;4989962;28;20037;-58
2021/09/10 03:30:16;;;;;;;29.65;15.07;;;17.90;99.90;;;;;;4990814;28;20030;-54
2021/09/10 03:32:42;;;;;;;17.23;11.98;;;17.80;99.90;;;;;;4987639;28;20026;-59
2021/09/10 03:35:08;;;;;;;15.82;11.82;;;17.80;99.90;;;;;;4990817;28;20029;-57
2021/09/10 03:37:34;;;;;;;21.67;12.63;;;17.70;99.90;;;;;;4988340;28;20037;-58
2021/09/10 03:40:00;;;;;;;21.38;13.05;;;17.70;99.90;;;;;;4986110;28;20031;-59
2021/09/10 03:42:26;;;;;;;19.58;13.45;;;17.70;99.90;;;;;;4989444;28;20518;-56
2021/09/10 03:44:51;;;;;;;21.45;14.32;;;17.70;99.90;;;;;;4990401;28;20026;-56
2021/09/10 03:47:17;;;;;;;21.50;14.02;;;17.70;99.90;;;;;;4989602;28;20093;-57
2021/09/10 03:49:42;;;;;;;20.83;12.65;;;17.60;99.90;;;;;;4988274;28;20030;-57
2021/09/10 03:52:08;;;;;;;19.92;13.77;;;17.60;99.90;;;;;;4988869;28;20505;-58
2021/09/10 03:54:34;;;;;;;19.40;12.82;;;17.60;99.90;;;;;;4989341;28;20034;-56
2021/09/10 03:56:59;;;;;;;19.58;13.13;;;17.70;99.90;;;;;;4987707;28;20031;-59
2021/09/10 03:59:25;;;;;;;17.25;11.52;;;17.70;99.90;;;;;;4989596;28;20097;-58
2021/09/10 04:01:50;;;;;;;23.98;12.57;;;17.70;99.90;;;;;;4988383;28;20031;-56
2021/09/10 04:04:16;;;;;;;15.07;12.07;;;17.70;99.90;;;;;;4985768;28;20054;-58
2021/09/10 04:06:42;;;;;;;20.15;12.85;;;17.80;99.90;;;;;;4987968;28;20038;-55
2021/09/10 04:09:08;;;;;;;19.17;13.55;;;17.80;99.90;;;;;;4990368;28;20031;-58
2021/09/10 04:11:35;;;;;;;15.65;11.65;;;17.80;99.90;;;;;;4993713;28;20022;-59
2021/09/10 04:14:01;;;;;;;15.10;11.25;;;17.80;99.90;;;;;;4993960;28;20121;-59
2021/09/10 04:16:27;;;;;;;20.70;11.60;;;17.80;99.90;;;;;;4990971;28;20121;-58
2021/09/10 04:18:53;;;;;;;19.17;12.13;;;17.80;99.90;;;;;;4993621;28;20100;-59
2021/09/10 04:21:18;;;;;;;17.80;12.20;;;17.80;99.90;;;;;;4993577;28;20421;-58
2021/09/10 04:23:44;;;;;;;20.88;12.48;;;17.80;99.90;;;;;;4993520;28;20033;-55
2021/09/10 04:26:09;;;;;;;14.48;11.48;;;17.80;99.90;;;;;;4993011;28;20058;-57
2021/09/10 04:28:35;;;;;;;20.85;11.93;;;17.80;99.90;;;;;;4993633;28;20034;-58
2021/09/10 04:31:00;;;;;;;18.60;12.00;;;17.80;99.90;;;;;;4992917;28;20026;-57
2021/09/10 04:33:26;;;;;;;18.55;11.43;;;17.80;99.90;;;;;;4993460;28;20490;-60
2021/09/10 04:35:52;;;;;;;20.75;11.75;;;17.80;99.90;;;;;;4991916;28;20030;-55
2021/09/10 04:38:17;;;;;;;16.75;12.07;;;17.80;99.90;;;;;;4988017;28;20053;-58
2021/09/10 04:40:43;;;;;;;17.20;11.93;;;17.80;99.90;;;;;;4992811;28;20106;-57
2021/09/10 04:43:08;;;;;;;20.13;11.48;;;17.80;99.90;;;;;;4993787;28;20046;-58
2021/09/10 04:45:34;;;;;;;13.20;10.60;;;17.80;99.90;;;;;;4992289;28;20034;-58
2021/09/10 04:47:59;;;;;;;17.48;12.23;;;17.80;99.90;;;;;;4992670;28;20133;-59
2021/09/10 04:50:25;;;;;;;13.80;11.82;;;17.90;99.90;;;;;;4993131;28;20498;-58
2021/09/10 04:52:50;;;;;;;18.25;12.85;;;17.90;99.90;;;;;;4993221;28;20734;-58
2021/09/10 04:55:17;;;;;;;20.17;10.98;;;17.80;99.90;;;;;;4992894;28;20406;-60
2021/09/10 04:57:42;;;;;;;16.90;11.52;;;17.80;99.90;;;;;;4993062;28;20041;-59
2021/09/10 05:00:08;;;;;;;23.40;12.90;;;17.80;99.90;;;;;;4989957;28;20031;-58
2021/09/10 05:02:34;;;;;;;14.10;10.75;;;17.80;99.90;;;;;;4990196;28;20030;-60
2021/09/10 05:05:00;;;;;;;19.90;10.98;;;17.70;99.90;;;;;;4993527;28;20015;-59
2021/09/10 05:07:25;;;;;;;15.85;10.93;;;17.70;99.90;;;;;;4987328;28;20023;-59
2021/09/10 05:09:51;;;;;;;17.55;11.05;;;17.60;99.90;;;;;;4991703;28;20110;-58
2021/09/10 05:12:17;;;;;;;20.73;12.38;;;17.60;99.90;;;;;;4987935;28;20023;-58
2021/09/10 05:14:43;;;;;;;16.80;11.82;;;17.50;99.90;;;;;;4990456;28;20022;-59
2021/09/10 05:17:10;;;;;;;17.48;12.10;;;17.50;99.90;;;;;;4990666;28;20023;-60
2021/09/10 05:19:36;;;;;;;16.90;12.05;;;17.50;99.90;;;;;;4967806;28;20165;-57
2021/09/10 05:22:01;;;;;;;13.15;11.45;;;17.50;99.90;;;;;;4988317;28;20612;-59
2021/09/10 05:24:27;;;;;;;16.73;12.07;;;17.50;99.90;;;;;;4990657;28;20034;-59
2021/09/10 05:26:52;;;;;;;16.02;11.20;;;17.50;99.90;;;;;;4987191;28;20030;-59
2021/09/10 05:29:18;;;;;;;16.40;11.95;;;17.50;99.90;;;;;;4990207;28;20023;-58
2021/09/10 05:31:43;;;;;;;19.58;12.98;;;17.50;99.90;;;;;;4990196;28;20058;-58
2021/09/10 05:34:11;;;;;;;17.83;12.15;;;17.40;99.90;;;;;;4988726;28;20030;-59
2021/09/10 05:36:37;;;;;;;19.40;12.30;;;17.40;99.90;;;;;;4990578;28;20018;-59
2021/09/10 05:39:02;;;;;;;19.23;11.68;;;17.40;99.90;;;;;;4988765;28;20598;-60
2021/09/10 05:41:28;;;;;;;17.73;10.77;;;17.40;99.90;;;;;;4990633;28;20038;-55
2021/09/10 05:43:53;;;;;;;13.60;11.27;;;17.50;99.90;;;;;;4992268;28;20034;-58
2021/09/10 05:46:19;;;;;;;11.52;10.38;;;17.50;99.90;;;;;;4991328;28;20466;-57
2021/09/10 05:48:44;;;;;;;14.82;11.40;;;17.50;99.90;;;;;;4986425;28;20046;-54
2021/09/10 05:51:11;;;;;;;18.85;11.55;;;17.60;99.90;;;;;;4985621;28;20146;-57
2021/09/10 05:53:38;;;;;;;13.18;10.52;;;17.60;99.90;;;;;;4990238;28;20015;-57
2021/09/10 05:56:03;;;;;;;17.20;10.23;;;17.70;99.90;;;;;;4988972;28;20014;-59
2021/09/10 05:58:29;;;;;;;12.90;9.60;;;17.80;99.90;;;;;;4992083;28;20023;-60
2021/09/10 06:00:55;;;;;;;16.48;9.95;;;17.80;99.90;;;;;;4990371;28;20490;-60
2021/09/10 06:03:20;;;;;;;12.48;9.23;;;17.90;99.90;;;;;;4990797;28;20113;-57
2021/09/10 06:05:46;;;;;;;11.95;9.65;;;18.10;99.90;;;;;;4991670;28;20104;-58
2021/09/10 06:08:11;;;;;;;19.98;9.32;;;18.20;99.90;;;;;;4987813;28;20034;-58
2021/09/10 06:10:37;;;;;;;11.75;8.98;;;18.30;99.90;;;;;;4990336;28;20039;-58
2021/09/10 06:13:03;;;;;;;13.77;8.90;;;18.50;99.90;;;;;;4992227;28;20459;-59
2021/09/10 06:15:28;;;;;;;9.18;8.13;;;18.60;99.90;;;;;;4990277;28;20037;-59
2021/09/10 06:17:54;;;;;;;12.48;8.52;;;18.70;99.90;;;;;;4991052;28;20688;-55
2021/09/10 06:20:19;;;;;;;11.13;7.63;;;18.90;99.90;;;;;;4989556;28;20096;-59
2021/09/10 06:22:45;;;;;;;8.65;7.70;;;19.00;99.90;;;;;;4990473;28;20030;-58
2021/09/10 06:25:10;;;;;;;8.43;6.65;;;19.20;99.90;;;;;;4991037;28;20102;-56
2021/09/10 06:27:41;;;;;;;10.35;7.65;;;19.30;99.90;;;;;;4987066;28;20034;-59
2021/09/10 06:30:07;;;;;;;14.70;7.68;;;19.40;99.90;;;;;;4989091;28;20030;-60
2021/09/10 06:32:34;;;;;;;10.63;6.47;;;19.60;99.90;;;;;;4989086;28;20058;-58
2021/09/10 06:34:59;;;;;;;10.98;6.78;;;19.70;99.90;;;;;;4990210;28;20107;-59
2021/09/10 06:37:25;;;;;;;7.50;6.05;;;20.10;99.90;;;;;;4972639;28;20562;-58
2021/09/10 06:39:51;;;;;;;8.68;6.20;;;20.40;99.90;;;;;;4988359;28;20034;-60
2021/09/10 06:42:17;;;;;;;11.95;7.20;;;20.90;99.90;;;;;;4991056;28;20030;-59
2021/09/10 06:44:42;;;;;;;14.70;5.75;;;21.20;99.90;;;;;;4990206;28;20105;-59
2021/09/10 06:47:08;;;;;;;11.10;5.50;;;21.40;99.90;;;;;;4989891;28;20038;-59
2021/09/10 06:49:34;;;;;;;11.02;5.55;;;21.70;99.90;;;;;;4989662;28;20029;-59
2021/09/10 06:51:59;;;;;;;10.73;5.70;;;22.10;99.90;;;;;;4988804;28;20114;-60
2021/09/10 06:54:25;;;;;;;7.25;5.30;;;22.50;99.90;;;;;;4991481;28;20018;-59
2021/09/10 06:56:50;;;;;;;8.65;4.93;;;23.20;99.90;;;;;;4987248;28;20025;-57
2021/09/10 06:59:19;;;;;;;9.35;4.70;;;24.40;99.90;;;;;;4990233;28;20385;-59
2021/09/10 07:01:48;;;;;;;8.10;4.30;;;25.80;99.90;;;;;;4989048;28;20109;-59
2021/09/10 07:04:14;;;;;;;12.50;4.90;;;26.20;99.90;;;;;;4990504;28;20031;-59
2021/09/10 07:06:39;;;;;;;8.57;4.00;;;26.30;99.90;;;;;;4988773;28;20044;-56
2021/09/10 07:09:05;;;;;;;11.57;3.78;;;26.50;99.90;;;;;;4989102;28;20027;-57
2021/09/10 07:11:35;;;;;;;5.70;4.35;;;26.30;99.90;;;;;;4989528;28;20029;-57
2021/09/10 07:14:01;;;;;;;5.15;4.65;;;26.10;99.90;;;;;;4990234;28;20080;-58
2021/09/10 07:16:27;;;;;;;7.38;4.65;;;26.00;99.90;;;;;;4987070;28;20088;-58
2021/09/10 07:18:53;;;;;;;8.13;3.80;;;25.70;99.90;;;;;;4988060;28;20506;-57
2021/09/10 07:21:19;;;;;;;7.03;4.93;;;25.20;99.90;;;;;;4987920;28;20064;-57
2021/09/10 07:23:44;;;;;;;8.02;4.68;;;24.70;99.90;;;;;;4989926;28;20089;-59
2021/09/10 07:26:10;;;;;;;8.30;4.55;;;24.30;99.90;;;;;;4988989;28;20030;-58
2021/09/10 07:28:36;;;;;;;6.68;5.07;;;23.80;99.90;;;;;;4989576;28;20030;-60
2021/09/10 07:31:04;;;;;;;8.43;5.45;;;23.30;99.90;;;;;;4989545;28;20038;-58
2021/09/10 07:33:29;;;;;;;7.00;4.18;;;23.20;99.90;;;;;;4989803;28;20040;-58
2021/09/10 07:35:55;;;;;;;7.38;5.00;;;23.10;99.90;;;;;;4989067;28;20682;-57
2021/09/10 07:38:21;;;;;;;7.82;5.13;;;22.90;99.90;;;;;;4983938;28;20029;-57
2021/09/10 07:40:47;;;;;;;8.65;5.85;;;22.70;99.90;;;;;;4989593;28;20042;-57
2021/09/10 07:43:13;;;;;;;8.82;5.82;;;22.50;99.90;;;;;;4989581;28;20137;-57
2021/09/10 07:45:39;;;;;;;9.52;5.72;;;22.30;99.90;;;;;;4988671;28;20363;-57
2021/09/10 07:48:05;;;;;;;6.38;5.03;;;22.40;99.90;;;;;;4986527;28;20038;-58
2021/09/10 07:50:31;;;;;;;8.18;5.60;;;22.50;99.90;;;;;;4985969;28;20038;-55
2021/09/10 07:52:56;;;;;;;8.35;4.78;;;22.60;99.90;;;;;;4987637;28;20019;-59
2021/09/10 07:55:22;;;;;;;8.77;5.55;;;22.70;99.90;;;;;;4988804;28;20031;-59
2021/09/10 07:57:48;;;;;;;7.85;5.20;;;22.70;99.90;;;;;;4979851;28;20054;-59
2021/09/10 08:00:17;;;;;;;10.25;5.00;;;22.90;99.90;;;;;;4989920;28;20109;-59
2021/09/10 08:02:43;;;;;;;10.80;5.05;;;23.20;99.90;;;;;;4989231;28;20398;-57
2021/09/10 08:05:09;;;;;;;10.32;4.88;;;23.40;99.90;;;;;;4989971;28;20034;-60
2021/09/10 08:07:34;;;;;;;8.40;5.03;;;23.70;99.90;;;;;;4989647;28;20108;-58
2021/09/10 08:10:00;;;;;;;7.10;4.65;;;23.80;99.90;;;;;;4989601;28;20490;-57
2021/09/10 08:12:27;;;;;;;7.50;4.82;;;24.10;99.90;;;;;;4986532;28;20026;-63
2021/09/10 08:14:52;;;;;;;7.93;4.68;;;24.50;99.90;;;;;;4989938;28;20034;-58
2021/09/10 08:17:18;;;;;;;6.72;4.80;;;24.70;99.90;;;;;;4993476;28;20102;-60
2021/09/10 08:19:43;;;;;;;6.90;4.43;;;24.50;99.90;;;;;;4988894;28;20481;-60
2021/09/10 08:22:09;;;;;;;6.22;4.18;;;24.30;99.90;;;;;;4989007;28;20577;-58
2021/09/10 08:24:34;;;;;;;7.93;4.60;;;24.00;99.90;;;;;;4989864;28;20030;-59
2021/09/10 08:27:00;;;;;;;5.28;4.40;;;23.80;99.90;;;;;;4988778;28;20027;-60
2021/09/10 08:29:25;;;;;;;7.07;4.28;;;23.60;99.90;;;;;;4990005;28;20034;-60
2021/09/10 08:31:51;;;;;;;8.70;4.03;;;23.40;99.90;;;;;;4988943;28;20117;-60
2021/09/10 08:34:16;;;;;;;6.65;3.70;;;23.40;99.90;;;;;;4989412;28;20064;-60
2021/09/10 08:36:42;;;;;;;8.90;4.70;;;23.40;99.90;;;;;;4989131;28;20046;-58
2021/09/10 08:39:07;;;;;;;4.15;3.50;;;23.50;99.90;;;;;;4988304;28;20073;-57
2021/09/10 08:41:35;;;;;;;6.68;3.90;;;23.50;99.90;;;;;;4989535;28;20034;-60
2021/09/10 08:44:05;;;;;;;9.93;4.43;;;23.60;99.90;;;;;;4989257;28;20113;-60
2021/09/10 08:46:34;;;;;;;10.98;4.53;;;23.60;99.90;;;;;;4989396;28;20562;-60
2021/09/10 08:49:01;;;;;;;12.52;4.45;;;23.80;99.90;;;;;;4988685;28;20026;-60
2021/09/10 08:51:26;;;;;;;7.43;3.90;;;23.60;99.90;;;;;;4987908;28;20031;-59
2021/09/10 08:53:52;;;;;;;4.55;3.42;;;23.70;99.90;;;;;;4988872;28;20421;-57
2021/09/10 08:56:18;;;;;;;9.30;3.83;;;23.70;99.90;;;;;;4990470;28;20034;-58
2021/09/10 08:58:43;;;;;;;11.40;3.75;;;23.80;99.90;;;;;;4992830;28;20072;-56
2021/09/10 09:01:09;;;;;;;6.75;4.20;;;23.90;99.90;;;;;;4992306;28;20073;-57
2021/09/10 09:03:35;;;;;;;6.13;4.25;;;24.40;99.90;;;;;;4992976;28;20026;-56
2021/09/10 09:06:01;;;;;;;8.57;3.40;;;24.60;99.90;;;;;;4993059;28;20385;-58
2021/09/10 09:08:27;;;;;;;4.65;3.10;;;24.90;99.90;;;;;;4992534;28;20066;-57
2021/09/10 09:11:00;;;;;;;6.15;4.07;;;25.20;99.90;;;;;;4983441;28;20077;-57
2021/09/10 09:13:37;;;;;;;6.57;3.20;;;25.70;99.90;;;;;;4989090;28;20030;-58
2021/09/10 09:16:18;;;;;;;4.38;3.05;;;26.60;99.90;;;;;;4992108;28;20030;-57
2021/09/10 09:18:52;;;;;;;6.90;2.90;;;27.20;99.90;;;;;;4992307;28;20121;-59
2021/09/10 09:21:32;;;;;;;3.83;3.10;;;27.40;99.90;;;;;;4992194;28;20025;-58
2021/09/10 09:24:17;;;;;;;4.03;2.67;;;27.30;99.90;;;;;;4992470;28;20536;-58
2021/09/10 09:26:44;;;;;;;4.97;3.25;;;27.50;99.90;;;;;;4989660;28;20085;-58
2021/09/10 09:29:13;;;;;;;6.72;3.35;;;26.80;99.90;;;;;;4991779;28;20105;-58
2021/09/10 09:31:39;;;;;;;5.07;3.25;;;26.90;99.90;;;;;;4989119;28;20188;-57
2021/09/10 09:34:06;;;;;;;3.38;2.97;;;27.60;99.60;;;;;;4991509;28;20037;-57
2021/09/10 09:36:33;;;;;;;7.88;2.50;;;28.20;99.30;;;;;;4989826;28;20026;-57
2021/09/10 09:39:07;;;;;;;6.15;3.10;;;28.40;97.90;;;;;;4991099;28;20041;-57
2021/09/10 09:41:42;;;;;;;5.65;2.97;;;28.20;97.90;;;;;;4990530;28;20671;-58
2021/09/10 09:44:13;;;;;;;5.15;2.75;;;27.60;99.20;;;;;;4988388;28;20045;-58
2021/09/10 09:46:41;;;;;;;4.38;2.75;;;27.70;99.90;;;;;;4991496;28;20034;-59
2021/09/10 09:49:12;;;;;;;5.43;2.78;;;28.40;98.40;;;;;;4992257;28;20034;-55
2021/09/10 09:51:58;;;;;;;7.30;3.00;;;28.80;98.10;;;;;;4990425;28;20066;-58
2021/09/10 09:54:24;;;;;;;4.47;2.45;;;29.10;96.40;;;;;;4991427;28;20027;-56
2021/09/10 09:56:51;;;;;;;5.45;2.95;;;29.00;97.10;;;;;;4990909;28;20025;-57
2021/09/10 09:59:18;;;;;;;3.92;2.42;;;28.80;95.70;;;;;;4991358;28;20014;-58
2021/09/10 10:01:44;;;;;;;3.63;2.92;;;28.60;97.90;;;;;;4990742;28;20383;-56
2021/09/10 10:04:10;;;;;;;4.35;2.53;;;28.70;96.90;;;;;;4991635;28;20029;-55
2021/09/10 10:06:37;;;;;;;3.60;2.60;;;28.80;97.10;;;;;;4987208;28;20378;-57
2021/09/10 10:09:10;;;;;;;7.55;2.65;;;28.70;96.70;;;;;;4991321;28;20118;-56
2021/09/10 10:11:44;;;;;;;5.43;2.60;;;28.40;97.50;;;;;;4990953;28;20026;-57
2021/09/10 10:14:14;;;;;;;8.05;2.70;;;27.60;96.50;;;;;;4990150;28;20033;-56
2021/09/10 10:16:41;;;;;;;5.97;2.65;;;27.10;98.10;;;;;;4991279;28;20057;-57
2021/09/10 10:19:20;;;;;;;5.93;2.47;;;27.10;98.10;;;;;;4975783;28;20052;-53
2021/09/10 10:21:55;;;;;;;5.22;2.72;;;27.20;99.30;;;;;;4988991;28;20055;-58
2021/09/10 10:24:39;;;;;;;6.55;2.70;;;27.10;98.40;;;;;;4991015;28;20026;-57
2021/09/10 10:27:36;;;;;;;4.07;2.50;;;27.20;98.20;;;;;;4990329;28;20034;-56
2021/09/10 10:30:37;;;;;;;5.38;2.63;;;27.20;98.00;;;;;;4990297;28;20569;-57
2021/09/10 10:33:27;;;;;;;5.20;2.47;;;27.90;97.30;;;;;;4991415;28;20047;-56
2021/09/10 10:35:53;;;;;;;9.52;2.78;;;28.40;97.20;;;;;;4989529;28;20046;-59
2021/09/10 10:38:18;;;;;;;8.40;2.47;;;28.60;96.60;;;;;;4990448;28;20039;-58
2021/09/10 10:40:53;;;;;;;5.20;2.53;;;28.50;96.90;;;;;;4989836;28;20100;-56
2021/09/10 10:43:22;;;;;;;5.50;2.97;;;28.70;96.30;;;;;;4989034;28;20033;-56
2021/09/10 10:45:47;;;;;;;3.38;2.38;;;28.50;95.50;;;;;;4989724;28;20030;-56
2021/09/10 10:48:28;;;;;;;4.65;2.97;;;28.60;96.10;;;;;;4990201;28;20038;-56
2021/09/10 10:50:54;;;;;;;4.30;1.90;;;28.40;95.90;;;;;;4989413;28;20105;-56
2021/09/10 10:53:19;;;;;;;6.68;2.25;;;28.50;96.20;;;;;;4990993;28;20046;-56
2021/09/10 10:55:45;;;;;;;4.70;2.30;;;28.30;95.70;;;;;;4989670;28;20030;-56
2021/09/10 10:58:26;;;;;;;3.47;1.90;;;27.20;97.80;;;;;;4990351;28;20673;-58
2021/09/10 11:01:02;;;;;;;3.58;2.15;;;26.30;99.20;;;;;;4987313;28;20041;-60
2021/09/10 11:03:27;;;;;;;2.83;1.73;;;25.10;99.90;;;;;;4989879;28;20114;-58
2021/09/10 11:05:55;;;;;;;28.02;6.05;;;24.30;99.90;;;;;;4989244;28;20464;-59
2021/09/10 11:08:43;;;;;;;6.25;2.38;;;23.70;99.90;;;;;;4981761;28;20026;-59
2021/09/10 11:11:09;;;;;;;10.90;2.80;;;23.00;99.90;;;;;;4985141;28;20069;-57
2021/09/10 11:13:42;;;;;;;7.90;2.30;;;22.30;99.90;;;;;;4987719;28;20018;-57
2021/09/10 11:16:11;;;;;;;6.40;2.60;;;21.90;99.90;;;;;;4985594;28;20461;-57
2021/09/10 11:18:37;;;;;;;9.23;3.45;;;21.60;99.90;;;;;;4985321;28;20055;-59
2021/09/10 11:21:05;;;;;;;7.85;2.47;;;21.40;99.90;;;;;;4982527;28;20041;-59
2021/09/10 11:23:36;;;;;;;12.05;2.90;;;21.30;99.90;;;;;;4980661;28;20448;-56
2021/09/10 11:26:05;;;;;;;6.60;2.13;;;21.00;99.90;;;;;;4976425;28;20087;-58
2021/09/10 11:28:33;;;;;;;12.52;2.55;;;20.90;99.90;;;;;;4984859;28;20081;-58
2021/09/10 11:30:58;;;;;;;6.72;1.88;;;20.80;99.90;;;;;;4982854;28;20453;-56
2021/09/10 11:33:24;;;;;;;7.18;2.85;;;20.70;99.90;;;;;;4984376;28;20022;-59
2021/09/10 11:35:52;;;;;;;6.13;2.58;;;20.90;99.90;;;;;;4980446;28;20397;-57
2021/09/10 11:38:21;;;;;;;5.05;2.80;;;21.10;99.90;;;;;;4987979;28;20432;-59
2021/09/10 11:40:47;;;;;;;8.75;2.85;;;21.30;99.90;;;;;;4985634;28;20030;-59
2021/09/10 11:43:14;;;;;;;6.03;2.28;;;21.50;99.90;;;;;;4986907;28;20033;-57
2021/09/10 11:45:44;;;;;;;7.45;2.58;;;21.90;99.90;;;;;;4977977;28;20049;-59
2021/09/10 11:48:12;;;;;;;8.98;1.80;;;22.30;99.90;;;;;;4986231;28;20410;-59
2021/09/10 11:50:47;;;;;;;3.88;2.00;;;22.60;99.90;;;;;;4984064;28;20487;-60
2021/09/10 11:53:17;;;;;;;6.88;2.22;;;23.10;99.90;;;;;;4986546;28;20058;-55
2021/09/10 11:56:06;;;;;;;4.45;1.50;;;23.60;99.90;;;;;;4989112;28;20044;-58
2021/09/10 11:58:42;;;;;;;2.35;1.75;;;24.00;99.90;;;;;;4988714;28;20448;-58
2021/09/10 12:01:21;;;;;;;2.75;1.65;;;24.30;99.90;;;;;;4988170;28;20089;-57
2021/09/10 12:03:49;;;;;;;3.05;1.50;;;24.70;99.90;;;;;;4986258;28;20064;-60
2021/09/10 12:06:35;;;;;;;6.70;1.98;;;24.70;99.90;;;;;;4986334;28;20037;-59
2021/09/10 12:09:16;;;;;;;5.78;2.55;;;24.80;99.90;;;;;;4989522;28;20038;-59
2021/09/10 12:12:05;;;;;;;6.63;2.10;;;24.70;99.90;;;;;;4989503;28;20034;-58
2021/09/10 12:14:32;;;;;;;4.13;1.95;;;24.40;99.90;;;;;;4990146;28;20026;-55
2021/09/10 12:17:37;;;;;;;6.25;2.58;;;24.40;99.90;;;;;;4985437;28;20377;-59
2021/09/10 12:20:02;;;;;;;6.30;2.35;;;24.30;99.90;;;;;;4920694;29;20043;-59
2021/09/10 12:22:30;;;;;;;10.30;2.78;;;24.40;99.90;;;;;;4936623;29;20028;-58
2021/09/10 12:25:32;;;;;;;5.35;2.65;;;24.60;99.90;;;;;;4956855;28;20093;-60
2021/09/10 12:28:22;;;;;;;4.22;2.13;;;24.60;99.90;;;;;;4987208;28;20089;-58
2021/09/10 12:30:50;;;;;;;5.93;2.38;;;24.70;99.90;;;;;;4986244;28;20084;-56
2021/09/10 12:33:21;;;;;;;6.72;2.58;;;24.80;99.90;;;;;;4991768;28;20054;-60
2021/09/10 12:35:49;;;;;;;7.75;2.80;;;25.10;99.90;;;;;;4986262;28;20065;-60
2021/09/10 12:38:17;;;;;;;3.97;2.08;;;25.30;99.90;;;;;;4990027;28;20022;-58